首页
METAR-TAF:

METAR-TAF

机场 :

子午线, 密西西比州, 美国

纬度: 32-32-47N, 经度: 088-32-35W, 海拔: 96米

当前天气观测

该预报发布于14分钟前的20:56 UTC
风速7节,风向东北
温度 18°C
湿度 20%
气压 1029 hPa
能見度: 16.1公里
散云层高于25000英尺

METAR: KNMM 072056Z 04007KT 10SM SCT250 18/M05 A3039 RMK AO2 SLP302 T01781050 56017

时间: 15:10 (21:10 UTC)

预报

预报有效从07日的 15点(UTC)到 08日的 15点(UTC)
风速12节,风向,有时为20节阵风
能见度10公里或以上
天空无云
从 08日的 0000点(UTC)
风速5节,风向多变
能见度10公里或以上
天空无云

TAF: KNMM 0715/0815 08012G20KT 9999 SKC QNH3038INS FM080000 VRB05KT 9999 SKC QNH3040INS T16/0721Z T03/0812Z FN00235

超过4000个机场的气象观测和天气预报(METAR&TAF报告)。

可查询的气象台以黄色和红色小点在地图上表示。

将鼠标移到小点上方,可查看气象台名称。

然后点击查看天气观测和预报。

如需切换地图:点击带黑十字的绿色按钮放大地图;点击带横线的绿色按钮缩小地图;或者点击绿色箭头查看邻近地区的地图。


METAR-TAF: